createdAt,value
2022-08-14T00:01:10.117Z,50.20
2022-08-14T00:04:44.869Z,46.90
2022-08-14T00:08:14.058Z,46.03
2022-08-14T00:11:39.713Z,47.50
2022-08-14T00:15:08.730Z,46.52
2022-08-14T00:19:06.261Z,46.52
2022-08-14T00:22:57.080Z,45.19
2022-08-14T00:26:23.077Z,44.87
2022-08-14T00:29:47.737Z,45.83
2022-08-14T00:33:15.416Z,43.64
2022-08-14T00:36:49.433Z,49.00
2022-08-14T00:40:19.061Z,43.97
2022-08-14T00:43:47.731Z,45.10
2022-08-14T00:47:13.715Z,43.00
2022-08-14T00:50:38.716Z,44.36
2022-08-14T00:54:02.715Z,46.52
2022-08-14T00:57:28.814Z,45.79
2022-08-14T01:00:57.577Z,45.69
2022-08-14T01:04:51.351Z,48.96
2022-08-14T01:08:07.800Z,45.14
2022-08-14T01:12:02.784Z,45.34
2022-08-14T01:15:31.667Z,46.81
2022-08-14T01:19:30.739Z,47.72
2022-08-14T01:22:59.738Z,50.92
2022-08-14T01:26:34.737Z,49.03
2022-08-14T01:30:04.923Z,45.18
2022-08-14T01:33:29.771Z,44.04
2022-08-14T01:36:53.741Z,46.22
2022-08-14T01:40:19.904Z,47.47
2022-08-14T01:43:39.764Z,47.49
2022-08-14T01:47:05.823Z,45.36
2022-08-14T01:50:30.728Z,46.69
2022-08-14T01:54:02.759Z,49.08
2022-08-14T01:57:49.493Z,46.34
2022-08-14T02:01:12.802Z,47.31
2022-08-14T02:04:54.519Z,48.78
2022-08-14T02:08:22.180Z,49.24
2022-08-14T02:11:49.764Z,52.04
2022-08-14T02:15:29.750Z,50.23
2022-08-14T02:18:53.886Z,53.28
2022-08-14T02:22:17.762Z,50.74
2022-08-14T02:25:55.760Z,51.40
2022-08-14T02:29:25.768Z,50.45
2022-08-14T02:33:10.681Z,50.28
2022-08-14T02:36:36.019Z,49.13
2022-08-14T02:40:20.803Z,49.79
2022-08-14T02:44:00.861Z,50.43
2022-08-14T02:47:27.771Z,50.06
2022-08-14T02:50:53.534Z,52.42
2022-08-14T02:54:19.820Z,52.66
2022-08-14T02:57:44.789Z,53.41
2022-08-14T03:01:16.809Z,54.77
2022-08-14T03:04:42.797Z,54.04
2022-08-14T03:08:07.963Z,54.46
2022-08-14T03:11:35.174Z,54.07
2022-08-14T03:15:00.772Z,53.81
2022-08-14T03:18:31.218Z,51.51
2022-08-14T03:21:57.762Z,54.54
2022-08-14T03:25:22.806Z,56.09
2022-08-14T03:28:49.875Z,56.31
2022-08-14T03:32:15.792Z,57.36
2022-08-14T03:36:05.205Z,58.50
2022-08-14T03:39:24.842Z,59.59
2022-08-14T03:42:52.765Z,58.87
2022-08-14T03:46:46.636Z,59.91
2022-08-14T03:50:05.780Z,60.04
2022-08-14T03:53:31.272Z,59.28
2022-08-14T03:56:59.915Z,58.91
2022-08-14T04:00:44.375Z,58.34
2022-08-14T04:04:14.787Z,56.64
2022-08-14T04:08:00.064Z,55.91
2022-08-14T04:11:26.771Z,57.24
2022-08-14T04:14:51.830Z,56.87
2022-08-14T04:18:21.777Z,57.69
2022-08-14T04:22:03.266Z,57.38
2022-08-14T04:25:28.786Z,59.61
2022-08-14T04:29:05.244Z,57.51
2022-08-14T04:33:02.840Z,57.91
2022-08-14T04:36:24.043Z,58.68
2022-08-14T04:40:08.970Z,58.76
2022-08-14T04:43:44.829Z,59.37
2022-08-14T04:47:31.775Z,58.41
2022-08-14T04:51:04.824Z,59.20
2022-08-14T04:54:28.802Z,59.42
2022-08-14T04:57:55.823Z,60.93
2022-08-14T05:01:22.860Z,60.37
2022-08-14T05:04:58.693Z,60.19
2022-08-14T05:08:31.976Z,60.04
2022-08-14T05:13:11.030Z,60.94
2022-08-14T05:15:57.841Z,61.51
2022-08-14T05:19:27.095Z,60.60
2022-08-14T05:22:56.148Z,61.01
2022-08-14T05:26:24.842Z,60.93
2022-08-14T05:29:52.817Z,60.18
2022-08-14T05:33:16.835Z,60.32
2022-08-14T05:36:41.843Z,60.43
2022-08-14T05:40:05.801Z,60.24
2022-08-14T05:43:33.054Z,60.04
2022-08-14T05:47:06.826Z,60.73
2022-08-14T05:50:32.828Z,60.88
2022-08-14T05:54:12.683Z,61.91
2022-08-14T05:57:30.850Z,62.93
2022-08-14T06:00:58.893Z,63.54
2022-08-14T06:04:22.831Z,64.57
2022-08-14T06:07:51.860Z,64.25
2022-08-14T06:11:20.224Z,64.96
2022-08-14T06:14:47.854Z,65.11
2022-08-14T06:18:12.828Z,65.17
2022-08-14T06:21:40.856Z,66.47
2022-08-14T06:25:04.849Z,67.03
2022-08-14T06:28:38.917Z,66.34
2022-08-14T06:32:38.087Z,66.57
2022-08-14T06:35:49.863Z,66.38
2022-08-14T06:39:13.888Z,66.61
2022-08-14T06:42:41.909Z,66.87
2022-08-14T06:46:05.848Z,67.99
2022-08-14T06:49:40.522Z,67.62
2022-08-14T06:53:04.443Z,68.10
2022-08-14T06:56:24.003Z,68.46
2022-08-14T06:59:47.873Z,67.87
2022-08-14T07:03:31.870Z,67.79
2022-08-14T07:06:59.012Z,68.65
2022-08-14T07:10:25.530Z,69.39
2022-08-14T07:13:49.889Z,70.40
2022-08-14T07:17:14.883Z,70.90
2022-08-14T07:20:40.888Z,71.05
2022-08-14T07:24:06.834Z,71.22
2022-08-14T07:27:36.152Z,70.28
2022-08-14T07:31:06.872Z,71.36
2022-08-14T07:34:43.153Z,70.62
2022-08-14T07:38:06.906Z,70.87
2022-08-14T07:41:35.914Z,70.81
2022-08-14T07:44:59.902Z,71.33
2022-08-14T07:48:25.557Z,72.01
2022-08-14T07:51:50.904Z,73.15
2022-08-14T07:55:09.542Z,74.09
2022-08-14T07:58:26.922Z,74.09
2022-08-14T08:01:58.851Z,73.55
2022-08-14T08:05:23.884Z,74.54
2022-08-14T08:09:00.978Z,77.30
2022-08-14T08:12:31.133Z,77.82
2022-08-14T08:15:58.852Z,77.76
2022-08-14T08:19:26.914Z,78.67
2022-08-14T08:23:06.255Z,79.13
2022-08-14T08:26:30.900Z,77.65
2022-08-14T08:29:54.937Z,78.42
2022-08-14T08:33:18.881Z,77.97
2022-08-14T08:36:42.910Z,76.97
2022-08-14T08:40:10.949Z,77.88
2022-08-14T08:43:51.110Z,79.54
2022-08-14T08:47:17.900Z,78.86
2022-08-14T08:50:49.319Z,78.69
2022-08-14T08:54:19.700Z,79.14
2022-08-14T08:57:44.521Z,78.63
2022-08-14T09:01:09.952Z,79.64
2022-08-14T09:04:35.884Z,79.73
2022-08-14T09:08:26.401Z,80.92
2022-08-14T09:11:46.927Z,81.39
2022-08-14T09:15:12.877Z,80.67
2022-08-14T09:18:38.907Z,80.25
2022-08-14T09:22:04.951Z,81.55
2022-08-14T09:26:00.514Z,80.58
2022-08-14T09:29:28.831Z,82.25
2022-08-14T09:33:12.724Z,82.64
2022-08-14T09:36:48.894Z,81.43
2022-08-14T09:40:20.876Z,81.93
2022-08-14T09:44:04.624Z,82.92
2022-08-14T09:47:30.952Z,84.10
2022-08-14T09:54:23.603Z,83.09
2022-08-14T09:57:47.953Z,84.18
2022-08-14T10:01:12.928Z,83.07
2022-08-14T10:04:46.288Z,83.35
2022-08-14T10:08:14.983Z,83.95
2022-08-14T10:11:46.961Z,84.45
2022-08-14T10:15:37.918Z,83.15
2022-08-14T10:19:07.324Z,83.50
2022-08-14T10:23:15.110Z,83.30
2022-08-14T10:26:28.129Z,85.63
2022-08-14T10:29:53.921Z,86.17
2022-08-14T10:33:20.946Z,86.09
2022-08-14T10:36:49.974Z,84.84
2022-08-14T10:40:37.629Z,84.06
2022-08-14T10:44:22.945Z,85.51
2022-08-14T10:48:08.656Z,84.85
2022-08-14T10:51:42.938Z,85.26
2022-08-14T10:55:06.964Z,85.59
2022-08-14T10:58:38.515Z,85.63
2022-08-14T11:01:55.957Z,85.66
2022-08-14T11:05:31.955Z,85.58
2022-08-14T11:08:59.928Z,84.86
2022-08-14T11:12:39.966Z,86.39
2022-08-14T11:16:05.954Z,85.88
2022-08-14T11:19:32.927Z,86.85
2022-08-14T11:22:59.960Z,84.97
2022-08-14T11:26:27.940Z,85.88
2022-08-14T11:30:00.643Z,85.62
2022-08-14T11:33:43.958Z,86.44
2022-08-14T11:37:19.093Z,86.19
2022-08-14T11:40:53.939Z,85.52
2022-08-14T11:44:46.701Z,85.39
2022-08-14T11:48:13.275Z,84.48
2022-08-14T11:51:53.732Z,84.87
2022-08-14T11:55:26.250Z,84.41
2022-08-14T11:58:51.984Z,84.36
2022-08-14T12:03:01.507Z,85.32
2022-08-14T12:06:27.868Z,85.28
2022-08-14T12:09:57.952Z,84.79
2022-08-14T12:13:34.723Z,84.79
2022-08-14T12:16:59.935Z,85.90
2022-08-14T12:20:29.978Z,84.64
2022-08-14T12:23:56.988Z,85.59
2022-08-14T12:27:27.969Z,84.09
2022-08-14T12:30:56.999Z,84.82
2022-08-14T12:34:25.979Z,84.43
2022-08-14T12:37:50.564Z,85.53
2022-08-14T12:41:21.238Z,83.77
2022-08-14T12:44:51.977Z,84.54
2022-08-14T12:48:21.730Z,85.87
2022-08-14T12:51:55.955Z,84.64
2022-08-14T12:56:00.534Z,85.17
2022-08-14T12:59:15.957Z,85.53
2022-08-14T13:02:40.042Z,85.16
2022-08-14T13:06:10.988Z,85.23
2022-08-14T13:09:38.169Z,84.48
2022-08-14T13:13:15.415Z,84.60
2022-08-14T13:16:38.986Z,84.89
2022-08-14T13:20:10.486Z,84.18
2022-08-14T13:23:51.973Z,84.59
2022-08-14T13:27:15.999Z,84.80
2022-08-14T13:30:43.989Z,84.81
2022-08-14T13:34:08.948Z,85.67
2022-08-14T13:37:33.998Z,86.26
2022-08-14T13:41:02.952Z,85.74
2022-08-14T13:44:29.041Z,85.42
2022-08-14T13:47:53.959Z,86.06
2022-08-14T13:51:20.995Z,85.76
2022-08-14T13:54:46.007Z,85.00
2022-08-14T13:58:33.499Z,86.31
2022-08-14T14:01:58.050Z,85.71
2022-08-14T14:05:22.017Z,85.95
2022-08-14T14:08:50.035Z,86.64
2022-08-14T14:12:38.282Z,86.11
2022-08-14T14:16:01.041Z,87.77
2022-08-14T14:19:24.974Z,86.74
2022-08-14T14:23:02.849Z,86.17
2022-08-14T14:26:33.316Z,87.40
2022-08-14T14:30:01.034Z,85.92
2022-08-14T14:33:46.611Z,86.81
2022-08-14T14:37:13.103Z,86.63
2022-08-14T14:40:54.447Z,87.19
2022-08-14T14:44:24.026Z,87.81
2022-08-14T14:47:47.992Z,87.67
2022-08-14T14:51:14.026Z,85.77
2022-08-14T14:54:39.210Z,86.36
2022-08-14T14:58:03.986Z,86.52
2022-08-14T15:01:32.105Z,85.77
2022-08-14T15:04:49.597Z,86.10
2022-08-14T15:08:08.035Z,85.49
2022-08-14T15:11:42.988Z,85.54
2022-08-14T15:15:10.104Z,86.05
2022-08-14T15:18:41.905Z,85.88
2022-08-14T15:22:12.061Z,86.21
2022-08-14T15:25:40.021Z,85.39
2022-08-14T15:29:06.190Z,85.26
2022-08-14T15:32:31.023Z,84.64
2022-08-14T15:35:57.002Z,84.94
2022-08-14T15:39:23.125Z,84.54
2022-08-14T15:42:47.224Z,84.53
2022-08-14T15:46:41.061Z,85.59
2022-08-14T15:49:59.688Z,85.62
2022-08-14T15:53:25.077Z,85.16
2022-08-14T15:56:56.030Z,85.00
2022-08-14T16:00:44.189Z,84.28
2022-08-14T16:04:17.504Z,84.23
2022-08-14T16:07:43.070Z,84.57
2022-08-14T16:11:07.151Z,85.57
2022-08-14T16:14:31.076Z,85.74
2022-08-14T16:17:55.073Z,85.78
2022-08-14T16:21:38.037Z,85.14
2022-08-14T16:25:07.095Z,85.71
2022-08-14T16:28:33.054Z,86.59
2022-08-14T16:31:59.095Z,87.42
2022-08-14T16:35:43.053Z,86.55
2022-08-14T16:39:14.137Z,86.36
2022-08-14T16:43:04.639Z,86.70
2022-08-14T16:46:33.087Z,87.21
2022-08-14T16:50:04.166Z,87.13
2022-08-14T16:53:35.854Z,87.34
2022-08-14T16:57:02.027Z,88.07
2022-08-14T17:00:47.100Z,88.19
2022-08-14T17:04:26.294Z,87.45
2022-08-14T17:07:52.597Z,86.88
2022-08-14T17:11:19.072Z,86.19
2022-08-14T17:15:20.073Z,87.38
2022-08-14T17:19:09.910Z,88.14
2022-08-14T17:22:38.106Z,87.06
2022-08-14T17:26:03.062Z,89.33
2022-08-14T17:29:34.102Z,88.61
2022-08-14T17:33:02.043Z,88.72
2022-08-14T17:36:32.109Z,89.80
2022-08-14T17:39:56.112Z,89.81
2022-08-14T17:43:21.141Z,90.47
2022-08-14T17:47:01.958Z,91.21
2022-08-14T17:50:59.313Z,91.91
2022-08-14T17:54:11.077Z,89.63
2022-08-14T17:57:42.133Z,91.75
2022-08-14T18:01:10.147Z,92.00
2022-08-14T18:04:37.086Z,91.93
2022-08-14T18:08:32.795Z,92.87
2022-08-14T18:11:48.111Z,91.83
2022-08-14T18:15:16.022Z,91.16
2022-08-14T18:18:40.111Z,91.30
2022-08-14T18:22:31.211Z,90.29
2022-08-14T18:26:01.110Z,90.44
2022-08-14T18:29:31.765Z,88.17
2022-08-14T18:32:58.088Z,86.74
2022-08-14T18:36:47.784Z,87.14
2022-08-14T18:40:08.957Z,86.81
2022-08-14T18:43:59.882Z,91.66
2022-08-14T18:47:27.068Z,90.91
2022-08-14T18:51:06.118Z,89.00
2022-08-14T18:54:48.640Z,88.26
2022-08-14T18:58:27.476Z,87.98
2022-08-14T19:01:56.459Z,87.61
2022-08-14T19:05:21.105Z,90.11
2022-08-14T19:08:54.160Z,88.93
2022-08-14T19:12:18.131Z,88.48
2022-08-14T19:16:00.098Z,88.39
2022-08-14T19:19:27.129Z,90.10
2022-08-14T19:22:55.115Z,90.48
2022-08-14T19:26:47.498Z,90.43
2022-08-14T19:30:34.101Z,90.54
2022-08-14T19:34:02.163Z,91.10
2022-08-14T19:38:04.109Z,91.70
2022-08-14T19:41:35.147Z,90.35
2022-08-14T19:44:59.105Z,90.91
2022-08-14T19:48:28.093Z,90.42
2022-08-14T19:51:58.095Z,89.64
2022-08-14T19:55:34.893Z,90.67
2022-08-14T19:59:00.116Z,91.77
2022-08-14T20:02:25.083Z,91.52
2022-08-14T20:05:57.551Z,91.23
2022-08-14T20:11:04.788Z,91.27
2022-08-14T20:13:24.117Z,90.58
2022-08-14T20:16:50.124Z,90.58
2022-08-14T20:20:15.161Z,90.65
2022-08-14T20:23:48.080Z,89.69
2022-08-14T20:27:34.852Z,89.18
2022-08-14T20:31:00.087Z,88.16
2022-08-14T20:34:35.510Z,88.46
2022-08-14T20:38:30.365Z,88.78
2022-08-14T20:41:44.136Z,87.90
2022-08-14T20:45:28.103Z,86.67
2022-08-14T20:48:53.967Z,86.12
2022-08-14T20:52:24.109Z,84.92
2022-08-14T20:55:53.584Z,84.85
2022-08-14T20:59:38.120Z,85.10
2022-08-14T21:03:09.151Z,84.18
2022-08-14T21:07:23.539Z,84.45
2022-08-14T21:10:44.670Z,83.11
2022-08-14T21:14:24.935Z,82.99
2022-08-14T21:17:54.165Z,83.54
2022-08-14T21:21:22.123Z,82.29
2022-08-14T21:24:49.149Z,81.74
2022-08-14T21:28:29.782Z,81.08
2022-08-14T21:31:56.676Z,81.50
2022-08-14T21:35:23.116Z,80.21
2022-08-14T21:38:47.167Z,79.95
2022-08-14T21:42:14.159Z,78.67
2022-08-14T21:45:42.133Z,78.25
2022-08-14T21:49:08.145Z,76.81
2022-08-14T21:52:50.980Z,76.36
2022-08-14T21:56:20.146Z,76.83
2022-08-14T21:59:46.121Z,76.30
2022-08-14T22:03:10.195Z,77.67
2022-08-14T22:06:36.105Z,77.65
2022-08-14T22:10:05.045Z,78.28
2022-08-14T22:13:32.520Z,79.07
2022-08-14T22:17:02.078Z,78.18
2022-08-14T22:20:39.142Z,78.06
2022-08-14T22:24:02.176Z,77.88
2022-08-14T22:27:36.130Z,77.82
2022-08-14T22:31:25.181Z,76.96
2022-08-14T22:34:59.123Z,76.21
2022-08-14T22:38:37.723Z,77.15
2022-08-14T22:42:20.865Z,76.47
2022-08-14T22:45:55.459Z,76.77
2022-08-14T22:50:31.050Z,74.95
2022-08-14T22:53:03.262Z,73.92
2022-08-14T22:56:30.177Z,75.47
2022-08-14T22:59:54.193Z,74.76
2022-08-14T23:03:26.219Z,73.97
2022-08-14T23:07:03.212Z,73.16
2022-08-14T23:10:32.452Z,73.38
2022-08-14T23:14:02.355Z,73.47
2022-08-14T23:17:28.165Z,72.79
2022-08-14T23:21:04.183Z,73.06
2022-08-14T23:24:29.190Z,72.61
2022-08-14T23:28:03.661Z,69.87
2022-08-14T23:31:35.661Z,69.63
2022-08-14T23:35:02.184Z,66.30
2022-08-14T23:38:30.519Z,66.17
2022-08-14T23:42:03.771Z,66.11
2022-08-14T23:45:36.934Z,65.45
2022-08-14T23:49:01.188Z,64.53
2022-08-14T23:52:51.094Z,65.01
2022-08-14T23:56:10.167Z,64.79
2022-08-14T23:59:36.199Z,65.83
